createdAt,value
2023-03-24T00:01:28.486Z,94653.34
2023-03-24T00:03:57.694Z,94656.75
2023-03-24T00:06:26.867Z,94650.97
2023-03-24T00:08:55.629Z,94663.63
2023-03-24T00:11:25.652Z,94659.94
2023-03-24T00:13:58.658Z,94663.72
2023-03-24T00:16:27.627Z,94647.38
2023-03-24T00:18:56.257Z,94661.22
2023-03-24T00:21:26.655Z,94654.97
2023-03-24T00:23:58.743Z,94658.84
2023-03-24T00:26:28.770Z,94646.97
2023-03-24T00:28:59.091Z,94649.38
2023-03-24T00:31:27.605Z,94620.31
2023-03-24T00:33:56.043Z,94644.19
2023-03-24T00:36:25.991Z,94637.56
2023-03-24T00:38:55.300Z,94648.56
2023-03-24T00:41:25.028Z,94642.69
2023-03-24T00:43:58.618Z,94635.41
2023-03-24T00:46:30.218Z,94640.16
2023-03-24T00:49:03.752Z,94647.16
2023-03-24T00:51:34.607Z,94630.13
2023-03-24T00:54:03.306Z,94623.13
2023-03-24T00:56:33.722Z,94631.31
2023-03-24T00:59:03.683Z,94632.31
2023-03-24T01:01:37.766Z,94625.03
2023-03-24T01:04:07.244Z,94619.25
2023-03-24T01:06:37.784Z,94610.94
2023-03-24T01:09:07.977Z,94602.28
2023-03-24T01:11:40.107Z,94625.22
2023-03-24T01:14:11.903Z,94619.03
2023-03-24T01:16:40.575Z,94620.16
2023-03-24T01:19:09.975Z,94622.63
2023-03-24T01:21:39.131Z,94596.09
2023-03-24T01:24:08.525Z,94575.94
2023-03-24T01:26:37.360Z,94570.97
2023-03-24T01:29:06.203Z,94593.59
2023-03-24T01:31:36.181Z,94583.59
2023-03-24T01:34:04.981Z,94579.13
2023-03-24T01:36:33.689Z,94516.09
2023-03-24T01:39:02.585Z,94563.38
2023-03-24T01:41:37.652Z,94563.97
2023-03-24T01:44:31.884Z,94559.88
2023-03-24T01:47:02.214Z,94550.38
2023-03-24T01:49:36.913Z,94542.84
2023-03-24T01:52:09.492Z,94544.81
2023-03-24T01:54:42.600Z,94542.13
2023-03-24T01:57:15.963Z,94503.72
2023-03-24T01:59:48.423Z,94528.06
2023-03-24T02:02:19.088Z,94529.06
2023-03-24T02:04:50.595Z,94524.69
2023-03-24T02:07:27.324Z,94531.25
2023-03-24T02:09:55.972Z,94521.88
2023-03-24T02:12:24.733Z,94522.78
2023-03-24T02:14:53.403Z,94509.50
2023-03-24T02:17:41.221Z,94524.88
2023-03-24T02:20:48.057Z,94523.38
2023-03-24T02:23:47.980Z,94519.69
2023-03-24T02:26:45.497Z,94524.28
2023-03-24T02:30:06.765Z,94492.56
2023-03-24T02:33:26.267Z,94489.56
2023-03-24T02:36:29.416Z,94467.94
2023-03-24T02:39:33.996Z,94467.03
2023-03-24T02:42:05.817Z,94462.00
2023-03-24T02:44:42.556Z,94457.50
2023-03-24T02:47:18.367Z,94455.97
2023-03-24T02:49:57.120Z,94446.41
2023-03-24T02:52:34.667Z,94447.91
2023-03-24T02:55:11.550Z,94433.75
2023-03-24T02:57:48.173Z,94449.41
2023-03-24T03:00:21.893Z,94435.38
2023-03-24T03:02:52.661Z,94440.59
2023-03-24T03:05:28.580Z,94432.97
2023-03-24T03:08:00.786Z,94430.38
2023-03-24T03:10:34.534Z,94432.25
2023-03-24T03:13:06.410Z,94420.88
2023-03-24T03:15:38.750Z,94408.06
2023-03-24T03:18:11.369Z,94422.41
2023-03-24T03:20:51.049Z,94409.81
2023-03-24T03:23:24.789Z,94402.06
2023-03-24T03:25:57.695Z,94410.41
2023-03-24T03:28:30.032Z,94411.81
2023-03-24T03:31:01.221Z,94406.53
2023-03-24T03:33:37.080Z,94368.75
2023-03-24T03:36:11.291Z,94362.19
2023-03-24T03:38:47.932Z,94389.41
2023-03-24T03:41:19.315Z,94385.94
2023-03-24T03:43:50.234Z,94387.00
2023-03-24T03:46:20.127Z,94356.78
2023-03-24T03:48:48.716Z,94402.78
2023-03-24T03:51:18.495Z,94403.25
2023-03-24T03:53:51.437Z,94402.19
2023-03-24T03:56:24.685Z,94404.88
2023-03-24T03:58:53.639Z,94385.53
2023-03-24T04:01:26.678Z,94380.66
2023-03-24T04:04:21.887Z,94391.69
2023-03-24T04:07:08.364Z,94390.91
2023-03-24T04:09:40.640Z,94387.13
2023-03-24T04:12:33.469Z,94381.16
2023-03-24T04:15:20.292Z,94383.34
2023-03-24T04:18:04.054Z,94373.66
2023-03-24T04:20:46.882Z,94363.78
2023-03-24T04:23:27.621Z,94364.00
2023-03-24T04:26:06.359Z,94394.25
2023-03-24T04:28:43.409Z,94379.41
2023-03-24T04:31:19.110Z,94356.84
2023-03-24T04:33:51.718Z,94382.75
2023-03-24T04:36:27.671Z,94363.31
2023-03-24T04:38:58.425Z,94330.50
2023-03-24T04:41:30.691Z,94331.81
2023-03-24T04:44:01.260Z,94336.22
2023-03-24T04:46:29.679Z,94327.75
2023-03-24T04:48:58.006Z,94323.56
2023-03-24T04:51:28.893Z,94336.81
2023-03-24T04:53:57.420Z,94320.94
2023-03-24T04:56:34.820Z,94304.22
2023-03-24T04:59:04.668Z,94325.53
2023-03-24T05:01:33.098Z,94331.72
2023-03-24T05:04:02.342Z,94319.13
2023-03-24T05:06:30.726Z,94316.56
2023-03-24T05:09:00.132Z,94265.09
2023-03-24T05:11:29.249Z,94305.72
2023-03-24T05:13:57.674Z,94291.75
2023-03-24T05:16:27.619Z,94272.75
2023-03-24T05:18:55.979Z,94278.09
2023-03-24T05:21:24.607Z,94293.66
2023-03-24T05:23:53.221Z,94284.09
2023-03-24T05:26:21.528Z,94290.47
2023-03-24T05:28:50.199Z,94289.94
2023-03-24T05:31:18.586Z,94299.03
2023-03-24T05:33:48.840Z,94310.47
2023-03-24T05:36:17.649Z,94297.03
2023-03-24T05:38:46.400Z,94289.44
2023-03-24T05:41:14.667Z,94288.34
2023-03-24T05:43:42.974Z,94282.84
2023-03-24T05:46:11.264Z,94295.00
2023-03-24T05:48:39.642Z,94307.72
2023-03-24T05:51:10.898Z,94273.19
2023-03-24T05:53:39.174Z,94319.25
2023-03-24T05:56:12.010Z,94289.34
2023-03-24T05:58:40.586Z,94304.28
2023-03-24T06:01:10.522Z,94324.00
2023-03-24T06:03:40.701Z,94320.66
2023-03-24T06:06:15.002Z,94333.44
2023-03-24T06:08:45.286Z,94337.59
2023-03-24T06:11:14.273Z,94339.34
2023-03-24T06:16:28.711Z,94355.31
2023-03-24T06:18:57.255Z,94353.91
2023-03-24T06:21:32.450Z,94326.53
2023-03-24T06:24:03.399Z,94352.06
2023-03-24T06:26:32.043Z,94358.00
2023-03-24T06:29:02.244Z,94357.47
2023-03-24T06:31:30.893Z,94377.66
2023-03-24T06:33:59.611Z,94363.06
2023-03-24T06:36:29.595Z,94375.44
2023-03-24T06:38:58.368Z,94323.88
2023-03-24T06:41:26.663Z,94362.47
2023-03-24T06:43:55.078Z,94357.50
2023-03-24T06:46:23.458Z,94371.19
2023-03-24T06:48:52.055Z,94365.94
2023-03-24T06:51:20.981Z,94402.94
2023-03-24T06:53:51.100Z,94368.84
2023-03-24T06:56:21.258Z,94372.00
2023-03-24T06:58:49.661Z,94388.84
2023-03-24T07:01:18.087Z,94382.09
2023-03-24T07:03:46.499Z,94370.19
2023-03-24T07:06:14.957Z,94383.06
2023-03-24T07:08:43.282Z,94362.81
2023-03-24T07:11:13.692Z,94353.75
2023-03-24T07:13:42.382Z,94347.25
2023-03-24T07:16:10.999Z,94343.34
2023-03-24T07:18:39.453Z,94339.88
2023-03-24T07:21:08.758Z,94348.63
2023-03-24T07:23:37.380Z,94338.72
2023-03-24T07:26:05.860Z,94335.91
2023-03-24T07:28:35.778Z,94317.13
2023-03-24T07:31:05.153Z,94312.88
2023-03-24T07:33:34.052Z,94313.63
2023-03-24T07:36:02.644Z,94318.81
2023-03-24T07:38:31.159Z,94323.41
2023-03-24T07:40:59.919Z,94327.19
2023-03-24T07:43:28.530Z,94325.50
2023-03-24T07:45:58.361Z,94322.94
2023-03-24T07:48:27.341Z,94335.19
2023-03-24T07:50:56.059Z,94327.63
2023-03-24T07:53:24.823Z,94324.81
2023-03-24T07:55:53.430Z,94331.56
2023-03-24T07:58:21.948Z,94311.72
2023-03-24T08:00:50.396Z,94312.13
2023-03-24T08:03:25.725Z,94319.28
2023-03-24T08:05:55.331Z,94321.69
2023-03-24T08:08:23.733Z,94322.28
2023-03-24T08:10:52.059Z,94316.88
2023-03-24T08:13:20.855Z,94324.06
2023-03-24T08:15:49.372Z,94343.13
2023-03-24T08:18:17.841Z,94330.34
2023-03-24T08:20:47.595Z,94326.41
2023-03-24T08:23:16.796Z,94314.44
2023-03-24T08:25:47.786Z,94324.63
2023-03-24T08:28:16.983Z,94331.59
2023-03-24T08:30:45.548Z,94324.75
2023-03-24T08:33:14.836Z,94309.50
2023-03-24T08:35:45.674Z,94334.00
2023-03-24T08:38:18.828Z,94345.56
2023-03-24T08:40:49.114Z,94348.56
2023-03-24T08:43:17.940Z,94346.66
2023-03-24T08:45:46.542Z,94335.69
2023-03-24T08:48:15.142Z,94353.94
2023-03-24T08:50:44.124Z,94353.66
2023-03-24T08:53:14.218Z,94375.38
2023-03-24T08:55:43.811Z,94322.09
2023-03-24T08:58:15.811Z,94353.38
2023-03-24T09:00:45.241Z,94347.00
2023-03-24T09:03:18.468Z,94341.97
2023-03-24T09:05:48.173Z,94371.31
2023-03-24T09:08:19.957Z,94357.84
2023-03-24T09:10:48.441Z,94345.66
2023-03-24T09:13:17.208Z,94357.38
2023-03-24T09:15:49.069Z,94367.72
2023-03-24T09:18:18.602Z,94352.47
2023-03-24T09:20:48.169Z,94356.94
2023-03-24T09:23:18.209Z,94352.13
2023-03-24T09:25:47.224Z,94368.09
2023-03-24T09:28:16.375Z,94359.97
2023-03-24T09:30:45.086Z,94344.09
2023-03-24T09:33:14.053Z,94366.34
2023-03-24T09:35:43.267Z,94349.97
2023-03-24T09:38:12.640Z,94367.47
2023-03-24T09:40:44.226Z,94364.19
2023-03-24T09:43:23.940Z,94382.53
2023-03-24T09:45:55.317Z,94354.44
2023-03-24T09:48:33.219Z,94353.53
2023-03-24T09:51:06.880Z,94352.91
2023-03-24T09:53:39.088Z,94351.16
2023-03-24T09:56:14.933Z,94361.50
2023-03-24T09:58:45.003Z,94322.25
2023-03-24T10:01:18.021Z,94376.91
2023-03-24T10:03:47.543Z,94380.44
2023-03-24T10:06:23.305Z,94388.06
2023-03-24T10:08:56.745Z,94383.31
2023-03-24T10:11:36.545Z,94371.69
2023-03-24T10:14:20.459Z,94393.44
2023-03-24T10:16:52.106Z,94393.72
2023-03-24T10:19:30.529Z,94337.88
2023-03-24T10:22:05.614Z,94412.19
2023-03-24T10:24:42.172Z,94420.41
2023-03-24T10:27:19.510Z,94413.03
2023-03-24T10:29:51.050Z,94419.53
2023-03-24T10:32:22.975Z,94422.38
2023-03-24T10:34:57.836Z,94413.44
2023-03-24T10:37:26.403Z,94407.25
2023-03-24T10:39:54.766Z,94412.38
2023-03-24T10:42:27.533Z,94412.56
2023-03-24T10:44:56.229Z,94414.41
2023-03-24T10:47:28.625Z,94408.66
2023-03-24T10:50:00.968Z,94397.38
2023-03-24T10:52:42.356Z,94413.53
2023-03-24T10:55:19.420Z,94418.63
2023-03-24T10:57:52.139Z,94415.31
2023-03-24T11:00:27.351Z,94406.75
2023-03-24T11:03:00.406Z,94420.06
2023-03-24T11:05:31.914Z,94423.41
2023-03-24T11:08:16.142Z,94434.59
2023-03-24T11:10:44.690Z,94442.03
2023-03-24T11:13:21.338Z,94442.19
2023-03-24T11:15:56.255Z,94436.47
2023-03-24T11:18:24.662Z,94428.16
2023-03-24T11:20:57.404Z,94434.03
2023-03-24T11:23:31.141Z,94445.69
2023-03-24T11:26:09.804Z,94471.63
2023-03-24T11:28:42.775Z,94497.06
2023-03-24T11:31:19.346Z,94503.13
2023-03-24T11:33:53.004Z,94479.97
2023-03-24T11:36:48.913Z,94513.69
2023-03-24T11:39:23.436Z,94519.47
2023-03-24T11:42:16.815Z,94531.25
2023-03-24T11:44:49.397Z,94507.69
2023-03-24T11:47:30.395Z,94512.09
2023-03-24T11:50:15.974Z,94524.69
2023-03-24T11:52:48.900Z,94527.47
2023-03-24T11:55:19.771Z,94491.34
2023-03-24T11:57:55.208Z,94518.78
2023-03-24T12:00:32.317Z,94534.63
2023-03-24T12:03:43.690Z,94559.19
2023-03-24T12:06:29.974Z,94564.53
2023-03-24T12:09:16.160Z,94552.59
2023-03-24T12:11:58.458Z,94546.00
2023-03-24T12:14:36.639Z,94561.97
2023-03-24T12:17:12.767Z,94554.19
2023-03-24T12:20:12.483Z,94556.50
2023-03-24T12:22:51.989Z,94561.75
2023-03-24T12:25:41.278Z,94558.59
2023-03-24T12:28:24.816Z,94542.72
2023-03-24T12:31:05.030Z,94541.53
2023-03-24T12:33:46.052Z,94542.53
2023-03-24T12:36:25.401Z,94536.44
2023-03-24T12:39:05.277Z,94537.03
2023-03-24T12:41:49.792Z,94524.16
2023-03-24T12:44:55.444Z,94518.94
2023-03-24T12:47:35.986Z,94513.41
2023-03-24T12:50:19.475Z,94516.97
2023-03-24T12:53:09.177Z,94508.47
2023-03-24T12:55:44.630Z,94497.53
2023-03-24T12:58:19.230Z,94485.78
2023-03-24T13:00:58.906Z,94499.63
2023-03-24T13:03:33.390Z,94499.25
2023-03-24T13:06:17.534Z,94489.31
2023-03-24T13:08:55.676Z,94494.97
2023-03-24T13:11:33.549Z,94502.09
2023-03-24T13:14:06.458Z,94490.44
2023-03-24T13:16:37.551Z,94506.66
2023-03-24T13:19:13.956Z,94520.63
2023-03-24T13:21:45.836Z,94516.72
2023-03-24T13:24:15.570Z,94516.84
2023-03-24T13:26:54.353Z,94494.44
2023-03-24T13:29:41.855Z,94485.81
2023-03-24T13:32:26.108Z,94464.59
2023-03-24T13:34:59.361Z,94451.13
2023-03-24T13:37:37.451Z,94450.84
2023-03-24T13:40:12.288Z,94454.63
2023-03-24T13:42:47.408Z,94431.94
2023-03-24T13:45:27.564Z,94442.44
2023-03-24T13:48:08.387Z,94448.03
2023-03-24T13:50:40.972Z,94429.72
2023-03-24T13:53:16.586Z,94439.06
2023-03-24T13:55:51.012Z,94439.84
2023-03-24T13:58:22.736Z,94448.81
2023-03-24T14:01:06.789Z,94454.38
2023-03-24T14:03:36.949Z,94431.94
2023-03-24T14:06:09.172Z,94413.06
2023-03-24T14:09:06.083Z,94468.00
2023-03-24T14:11:45.829Z,94467.31
2023-03-24T14:14:23.404Z,94425.69
2023-03-24T14:17:00.268Z,94458.91
2023-03-24T14:19:32.767Z,94456.47
2023-03-24T14:22:12.883Z,94454.09
2023-03-24T14:24:44.833Z,94450.59
2023-03-24T14:27:34.895Z,94454.38
2023-03-24T14:30:07.693Z,94449.94
2023-03-24T14:32:41.874Z,94458.69
2023-03-24T14:35:24.531Z,94455.03
2023-03-24T14:37:55.496Z,94469.78
2023-03-24T14:40:32.303Z,94457.56
2023-03-24T14:43:18.292Z,94466.31
2023-03-24T14:46:05.137Z,94471.72
2023-03-24T14:48:38.213Z,94474.00
2023-03-24T14:51:36.649Z,94399.59
2023-03-24T14:54:08.604Z,94465.06
2023-03-24T14:56:43.545Z,94476.72
2023-03-24T14:59:23.033Z,94474.94
2023-03-24T15:02:01.052Z,94474.50
2023-03-24T15:04:30.960Z,94470.44
2023-03-24T15:06:59.206Z,94470.22
2023-03-24T15:09:28.228Z,94472.03
2023-03-24T15:12:01.835Z,94482.97
2023-03-24T15:14:30.430Z,94468.63
2023-03-24T15:17:02.223Z,94477.63
2023-03-24T15:19:33.833Z,94446.63
2023-03-24T15:22:04.767Z,94468.38
2023-03-24T15:24:35.886Z,94469.47
2023-03-24T15:27:25.096Z,94480.94
2023-03-24T15:29:59.236Z,94477.66
2023-03-24T15:32:32.251Z,94475.28
2023-03-24T15:35:05.808Z,94466.78
2023-03-24T15:37:39.227Z,94446.50
2023-03-24T15:40:24.740Z,94441.50
2023-03-24T15:42:54.794Z,94459.59
2023-03-24T15:45:28.035Z,94453.97
2023-03-24T15:47:57.760Z,94451.47
2023-03-24T15:50:32.737Z,94453.66
2023-03-24T15:53:03.266Z,94469.47
2023-03-24T15:55:34.999Z,94460.38
2023-03-24T15:58:23.305Z,94472.44
2023-03-24T16:00:55.859Z,94476.53
2023-03-24T16:03:26.925Z,94477.91
2023-03-24T16:05:58.011Z,94495.91
2023-03-24T16:08:30.938Z,94406.84
2023-03-24T16:11:01.316Z,94498.41
2023-03-24T16:13:31.680Z,94496.31
2023-03-24T16:16:02.058Z,94487.13
2023-03-24T16:18:33.959Z,94477.16
2023-03-24T16:21:02.772Z,94493.72
2023-03-24T16:23:32.178Z,94487.63
2023-03-24T16:26:00.491Z,94490.03
2023-03-24T16:28:32.729Z,94489.34
2023-03-24T16:31:05.121Z,94510.47
2023-03-24T16:33:34.055Z,94508.00
2023-03-24T16:36:02.704Z,94509.28
2023-03-24T16:38:33.327Z,94509.69
2023-03-24T16:41:02.074Z,94512.56
2023-03-24T16:43:34.303Z,94513.91
2023-03-24T16:46:04.502Z,94506.31
2023-03-24T16:48:33.861Z,94514.28
2023-03-24T16:51:02.173Z,94511.72
2023-03-24T16:53:30.530Z,94507.31
2023-03-24T16:55:58.905Z,94497.72
2023-03-24T16:58:27.679Z,94508.91
2023-03-24T17:00:58.876Z,94516.09
2023-03-24T17:03:29.774Z,94510.22
2023-03-24T17:05:58.923Z,94504.31
2023-03-24T17:08:27.249Z,94501.13
2023-03-24T17:10:55.586Z,94494.47
2023-03-24T17:13:26.031Z,94498.34
2023-03-24T17:15:54.619Z,94496.06
2023-03-24T17:18:24.537Z,94481.41
2023-03-24T17:20:52.847Z,94494.75
2023-03-24T17:23:22.123Z,94498.94
2023-03-24T17:25:50.400Z,94491.56
2023-03-24T17:28:18.994Z,94478.41
2023-03-24T17:30:47.546Z,94499.56
2023-03-24T17:33:16.485Z,94500.75
2023-03-24T17:35:47.741Z,94475.69
2023-03-24T17:38:17.837Z,94512.59
2023-03-24T17:40:47.341Z,94512.91
2023-03-24T17:43:15.940Z,94508.41
2023-03-24T17:45:44.269Z,94515.34
2023-03-24T17:48:12.603Z,94503.13
2023-03-24T17:50:42.091Z,94508.41
2023-03-24T17:53:13.909Z,94499.09
2023-03-24T17:55:42.330Z,94511.31
2023-03-24T17:58:11.071Z,94511.59
2023-03-24T18:00:39.427Z,94509.81
2023-03-24T18:03:07.810Z,94505.25
2023-03-24T18:05:36.084Z,94502.13
2023-03-24T18:08:05.979Z,94492.66
2023-03-24T18:10:36.389Z,94521.13
2023-03-24T18:13:05.390Z,94520.16
2023-03-24T18:15:34.525Z,94530.50
2023-03-24T18:18:03.614Z,94532.66
2023-03-24T18:20:32.204Z,94531.09
2023-03-24T18:23:01.228Z,94537.84
2023-03-24T18:25:29.942Z,94533.25
2023-03-24T18:27:59.930Z,94520.06
2023-03-24T18:30:28.315Z,94536.84
2023-03-24T18:33:01.345Z,94479.34
2023-03-24T18:35:30.612Z,94535.91
2023-03-24T18:37:58.949Z,94547.25
2023-03-24T18:40:27.512Z,94537.28
2023-03-24T18:42:55.784Z,94543.56
2023-03-24T18:45:25.538Z,94539.66
2023-03-24T18:47:53.882Z,94525.81
2023-03-24T18:50:22.254Z,94547.91
2023-03-24T18:52:50.657Z,94540.50
2023-03-24T18:55:20.928Z,94538.41
2023-03-24T18:57:49.268Z,94548.63
2023-03-24T19:00:20.293Z,94536.78
2023-03-24T19:02:50.400Z,94553.22
2023-03-24T19:05:19.062Z,94536.22
2023-03-24T19:07:48.708Z,94550.81
2023-03-24T19:10:17.111Z,94545.44
2023-03-24T19:12:45.435Z,94548.22
2023-03-24T19:15:14.702Z,94561.13
2023-03-24T19:17:43.113Z,94550.38
2023-03-24T19:20:14.110Z,94558.50
2023-03-24T19:22:42.474Z,94557.19
2023-03-24T19:25:11.072Z,94549.44
2023-03-24T19:27:39.355Z,94559.97
2023-03-24T19:30:09.234Z,94552.72
2023-03-24T19:32:37.764Z,94560.47
2023-03-24T19:35:07.256Z,94568.84
2023-03-24T19:37:37.772Z,94554.00
2023-03-24T19:40:08.980Z,94558.84
2023-03-24T19:42:39.934Z,94559.66
2023-03-24T19:45:09.405Z,94558.50
2023-03-24T19:47:38.213Z,94550.97
2023-03-24T19:50:07.874Z,94537.16
2023-03-24T19:52:37.997Z,94572.38
2023-03-24T19:55:07.296Z,94558.53
2023-03-24T19:57:35.841Z,94561.66
2023-03-24T20:00:06.282Z,94569.97
2023-03-24T20:02:35.475Z,94568.97
2023-03-24T20:05:03.989Z,94579.28
2023-03-24T20:07:32.316Z,94549.28
2023-03-24T20:10:02.112Z,94587.63
2023-03-24T20:12:31.000Z,94590.28
2023-03-24T20:14:59.361Z,94577.47
2023-03-24T20:17:28.866Z,94548.41
2023-03-24T20:19:57.450Z,94582.03
2023-03-24T20:22:25.852Z,94567.66
2023-03-24T20:24:54.277Z,94592.00
2023-03-24T20:27:24.092Z,94579.91
2023-03-24T20:29:52.350Z,94566.16
2023-03-24T20:32:20.646Z,94583.41
2023-03-24T20:34:50.801Z,94521.38
2023-03-24T20:37:19.107Z,94580.53
2023-03-24T20:39:47.474Z,94584.53
2023-03-24T20:42:17.696Z,94584.28
2023-03-24T20:44:47.431Z,94578.41
2023-03-24T20:47:16.097Z,94576.00
2023-03-24T20:49:44.450Z,94584.53
2023-03-24T20:52:14.417Z,94575.06
2023-03-24T20:54:42.866Z,94591.63
2023-03-24T20:57:12.170Z,94581.44
2023-03-24T20:59:40.593Z,94596.81
2023-03-24T21:02:12.562Z,94603.75
2023-03-24T21:04:41.079Z,94592.66
2023-03-24T21:07:09.773Z,94594.84
2023-03-24T21:09:38.277Z,94605.06
2023-03-24T21:12:07.655Z,94594.03
2023-03-24T21:14:36.025Z,94590.91
2023-03-24T21:17:04.692Z,94565.75
2023-03-24T21:19:34.505Z,94596.72
2023-03-24T21:22:03.326Z,94592.78
2023-03-24T21:24:31.727Z,94598.47
2023-03-24T21:27:01.028Z,94588.94
2023-03-24T21:29:29.945Z,94592.22
2023-03-24T21:31:58.331Z,94591.00
2023-03-24T21:34:26.706Z,94582.94
2023-03-24T21:36:56.881Z,94583.34
2023-03-24T21:39:25.317Z,94593.47
2023-03-24T21:41:54.814Z,94596.66
2023-03-24T21:44:23.470Z,94594.69
2023-03-24T21:46:54.330Z,94583.13
2023-03-24T21:49:22.891Z,94598.91
2023-03-24T21:51:54.966Z,94593.38
2023-03-24T21:54:26.967Z,94606.47
2023-03-24T21:56:55.534Z,94606.31
2023-03-24T21:59:24.296Z,94591.19
2023-03-24T22:01:53.556Z,94612.53
2023-03-24T22:04:22.068Z,94593.69
2023-03-24T22:06:50.369Z,94603.19
2023-03-24T22:09:19.226Z,94607.03
2023-03-24T22:11:49.137Z,94588.22
2023-03-24T22:14:19.248Z,94586.91
2023-03-24T22:16:47.607Z,94590.16
2023-03-24T22:19:16.053Z,94588.13
2023-03-24T22:21:44.654Z,94591.91
2023-03-24T22:24:12.919Z,94547.09
2023-03-24T22:26:41.233Z,94570.41
2023-03-24T22:29:11.212Z,94567.78
2023-03-24T22:31:42.818Z,94557.75
2023-03-24T22:34:11.614Z,94554.88
2023-03-24T22:36:40.195Z,94550.69
2023-03-24T22:39:08.561Z,94557.19
2023-03-24T22:41:36.911Z,94563.03
2023-03-24T22:44:05.425Z,94510.03
2023-03-24T22:46:35.284Z,94535.00
2023-03-24T22:49:03.639Z,94544.97
2023-03-24T22:51:31.925Z,94541.53
2023-03-24T22:54:02.343Z,94537.84
2023-03-24T22:56:30.942Z,94520.78
2023-03-24T22:58:59.351Z,94534.69
2023-03-24T23:01:27.743Z,94547.94
2023-03-24T23:03:57.641Z,94550.91
2023-03-24T23:06:27.780Z,94535.03
2023-03-24T23:08:56.119Z,94538.06
2023-03-24T23:11:24.467Z,94526.38
2023-03-24T23:13:52.744Z,94439.69
2023-03-24T23:16:22.038Z,94536.41
2023-03-24T23:18:51.730Z,94534.94
2023-03-24T23:21:21.694Z,94548.09
2023-03-24T23:23:50.044Z,94460.50
2023-03-24T23:26:25.446Z,94514.69
2023-03-24T23:28:55.240Z,94518.50
2023-03-24T23:31:25.806Z,94521.44
2023-03-24T23:33:56.230Z,94523.72
2023-03-24T23:36:28.500Z,94532.06
2023-03-24T23:38:57.629Z,94517.34
2023-03-24T23:41:26.401Z,94517.00
2023-03-24T23:43:55.271Z,94524.84
2023-03-24T23:46:24.625Z,94514.47
2023-03-24T23:48:53.378Z,94508.69
2023-03-24T23:51:22.377Z,94514.16
2023-03-24T23:53:52.263Z,94493.41
2023-03-24T23:56:21.812Z,94524.44
2023-03-24T23:58:50.258Z,94526.81
